Hampshire Downs, United Kingdom
Current Conditions -  °F | °C
As of 7:50 AM on Sunday 23 Nov 2014 (Local Time) from EGVO Reporting Station
Light Rain Light Rain  
Wind Chill: 42°   Ceiling: 2700
Heat Index: 46°   Visibility: 4mi
Dew Point: 46°   Wind: 9mph
Humidity: 100%   Direction: 330°NNW
Pressure: 30"   Gusts: NA
Location:  51.3°N, 1.2°W
Report Text: EGVO 230750Z 33008KT 6000 4000SE -RA SCT004 BKN027 OVC035 08/08 Q1016 YLO2 TEMPO 8000 FEW004 BKN030 BLU
Loading
Personal Weather Stations






























Interactive Weather Map New forecast layout! Learn more

10-Day Weather Forecast

Advertisements
Track Severe Weather on mobile